Terminal Aerodrome Forecast
Issued by NWS Green Bay, WI

Home | Current Version | Previous Version | Graphics & Text | Print | Product List | Glossary On
Versions: 1 2 3 4 5 6 7 8 9 10 11 12 13 14 15 16 17 18 19 20 21 22 23
000
FTUS43 KGRB 271137
TAFGRB
TAF
KGRB 271137Z 2712/2812 13006KT P6SM SCT100 BKN200
     FM271700 13010G17KT P6SM VCSH SCT040 OVC100
      TEMPO 2718/2722 4SM TSRA BKN025CB
     FM280100 14006KT 6SM BR VCSH SCT020 OVC035
     FM280400 16007KT 4SM BR VCSH BKN015 OVC025
      TEMPO 2804/2808 2SM -SHRA BR BKN008
     FM280800 16007KT 3SM BR VCSH BKN006 OVC025=

USA.gov is the U.S. government's official web portal to all federal, state and local government web resources and services.